KCAO/CAO METAR and TAF weather

Enter ICAO airport designator
Station Type Date Time Source
KCAO METAR 2021/09/16 21:55 UTC NOAA

KCAO 162155Z AUTO 17016G25KT 10SM CLR 32/07 A2990 RMK AO2 PK WND 19027/2115 SLP052 T03220072


Station Type Date Time Source
KCAO Decoded METAR 2021/09/16 21:55 UTC NOAA

CLAYTON MUNICIPAL AIRPARK, NM, United States (KCAO) 36-27N 103-09W 1514M
Sep 16, 2021 - 05:55 PM EDT / 2021.09.16 2155 UTC
Wind: from the S (170 degrees) at 18 MPH (16 KT) gusting to 29 MPH (25 KT):0
Visibility: 10 mile(s):0
Sky conditions: clear
Temperature: 90.0 F (32.2 C)
Dew Point: 45.0 F (7.2 C)
Relative Humidity: 21%
Pressure (altimeter): 29.9 in. Hg (1012 hPa)
ob: KCAO 162155Z AUTO 17016G25KT 10SM CLR 32/07 A2990 RMK AO2 PK WND 19027/2115 SLP052 T03220072
cycle: 22

Station Type Date Time Source
KCAO TAF UTC NOAA

Error!

Example: see airport list